Time;durP1;ratioP1;P1;durP2;ratioP2;P2;SDS_P1;SDS_P2;PMS_P1;PMS_P2;Temp;Humidity;BMP_temperature;BMP_pressure;BME280_temperature;BME280_humidity;BME280_pressure;Samples;Min_cycle;Max_cycle;Signal;HPM_P1;HPM_P2
2022/01/08 00:01:11;;;;;;;10.95;5.55;;;;;;;5.78;60.25;100946.88;4947013;28;124472;-70
2022/01/08 00:03:40;;;;;;;12.25;5.65;;;;;;;5.77;60.26;100945.16;4947141;28;123577;-70
2022/01/08 00:06:09;;;;;;;11.73;6.20;;;;;;;5.74;60.07;100945.22;4947178;28;120569;-70
2022/01/08 00:08:36;;;;;;;11.63;5.60;;;;;;;5.73;60.09;100948.75;4947557;28;119864;-70
2022/01/08 00:11:06;;;;;;;12.27;5.85;;;;;;;5.72;59.96;100952.28;4945386;28;123320;-70
2022/01/08 00:13:34;;;;;;;12.63;5.43;;;;;;;5.70;60.01;100964.59;4944531;28;122972;-70
2022/01/08 00:16:01;;;;;;;12.65;5.72;;;;;;;5.66;60.21;100964.63;4947301;28;119554;-70
2022/01/08 00:18:28;;;;;;;14.15;5.85;;;;;;;5.63;60.10;100964.72;4940577;28;119027;-69
2022/01/08 00:20:55;;;;;;;10.23;5.72;;;;;;;5.62;60.35;100957.72;4947077;28;124272;-70
2022/01/08 00:23:22;;;;;;;13.05;5.82;;;;;;;5.60;60.21;100959.53;4947312;28;123949;-70
2022/01/08 00:25:49;;;;;;;10.90;6.10;;;;;;;5.59;60.38;100963.03;4947175;28;119751;-71
2022/01/08 00:28:16;;;;;;;10.57;5.82;;;;;;;5.58;60.41;100966.59;4929592;28;117906;-70
2022/01/08 00:30:45;;;;;;;13.63;5.88;;;;;;;5.57;60.10;100970.09;4928235;28;123163;-70
2022/01/08 00:33:12;;;;;;;12.63;6.00;;;;;;;5.56;60.37;100962.28;4947156;28;123801;-70
2022/01/08 00:35:39;;;;;;;12.88;5.97;;;;;;;5.53;60.31;100957.94;4946943;28;119032;-70
2022/01/08 00:38:06;;;;;;;12.57;6.03;;;;;;;5.52;60.26;100961.47;4945611;28;118544;-70
2022/01/08 00:40:34;;;;;;;14.63;6.13;;;;;;;5.50;60.25;100963.28;4945183;28;123182;-70
2022/01/08 00:43:01;;;;;;;11.57;6.13;;;;;;;5.49;60.33;100961.53;4929632;28;123790;-70
2022/01/08 00:45:28;;;;;;;10.50;6.00;;;;;;;5.47;60.71;100958.09;4946407;28;119410;-70
2022/01/08 00:47:55;;;;;;;13.68;6.38;;;;;;;5.45;60.29;100970.38;4947872;28;119403;-70
2022/01/08 00:50:23;;;;;;;11.40;5.85;;;;;;;5.44;60.45;100973.91;4945552;28;123067;-69
2022/01/08 00:52:50;;;;;;;12.38;6.10;;;;;;;5.40;60.38;100972.25;4929227;28;123113;-70
2022/01/08 00:55:17;;;;;;;14.57;5.80;;;;;;;5.39;60.11;100973.16;4946309;28;120515;-70
2022/01/08 00:57:44;;;;;;;13.45;6.03;;;;;;;5.36;60.17;100981.09;4946616;28;119613;-70
2022/01/08 01:00:13;;;;;;;14.50;6.47;;;;;;;5.35;60.48;100979.34;4946153;28;124967;-70
2022/01/08 01:02:41;;;;;;;13.65;6.38;;;;;;;5.33;60.36;100981.13;4946507;28;123199;-70
2022/01/08 01:05:09;;;;;;;14.25;6.05;;;;;;;5.30;60.33;100991.72;4946629;28;119762;-70
2022/01/08 01:07:37;;;;;;;10.40;6.00;;;;;;;5.28;60.41;100988.28;4946859;28;118856;-70
2022/01/08 01:10:06;;;;;;;13.63;5.97;;;;;;;5.28;60.22;100988.28;4946058;28;124034;-70
2022/01/08 01:12:35;;;;;;;15.85;6.15;;;;;;;5.26;60.40;100985.69;4945808;28;123897;-70
2022/01/08 01:15:12;;;;;;;12.15;5.93;;;;;;;5.21;60.34;100985.75;4945580;28;119891;-71
2022/01/08 01:17:39;;;;;;;11.63;6.10;;;;;;;5.20;60.39;100996.31;4945360;28;118990;-70
2022/01/08 01:20:08;;;;;;;12.30;5.95;;;;;;;5.17;60.57;100991.97;4945675;28;124065;-71
2022/01/08 01:22:49;;;;;;;11.00;6.60;;;;;;;5.16;60.47;100990.25;4946112;28;123892;-70
2022/01/08 01:25:21;;;;;;;13.88;6.43;;;;;;;5.12;60.45;100991.19;4945582;28;118170;-70
2022/01/08 01:41:28;;;;;;;11.70;6.30;;;;;;;4.99;60.43;100987.97;4945162;28;124072;-70
2022/01/08 01:49:20;;;;;;;17.65;6.82;;;;;;;5.00;60.59;100983.56;4942784;28;118798;-69
2022/01/08 01:51:48;;;;;;;13.00;6.53;;;;;;;4.98;60.59;100988.84;4945953;28;124474;-70
2022/01/08 01:54:15;;;;;;;10.85;6.20;;;;;;;4.97;60.37;100994.13;4945775;28;123675;-70
2022/01/08 01:56:42;;;;;;;12.07;6.22;;;;;;;4.97;60.64;100994.13;4946193;28;119200;-70
2022/01/08 01:59:09;;;;;;;17.13;6.45;;;;;;;4.95;60.54;100998.53;4944494;28;118374;-70
2022/01/08 02:01:36;;;;;;;13.18;6.40;;;;;;;4.94;60.61;101004.69;4945755;28;124701;-70
2022/01/08 02:04:04;;;;;;;12.23;6.00;;;;;;;4.92;60.71;100996.84;4928901;28;122824;-70
2022/01/08 02:06:31;;;;;;;11.07;5.88;;;;;;;4.90;60.78;100997.75;4928124;28;118123;-70
2022/01/08 02:08:58;;;;;;;15.55;6.55;;;;;;;4.88;60.66;101001.28;4946948;28;118735;-71
2022/01/08 02:11:25;;;;;;;13.38;6.30;;;;;;;4.87;60.55;100989.03;4944009;28;125089;-70
2022/01/08 02:14:01;;;;;;;11.00;5.70;;;;;;;4.86;60.78;100995.19;4945249;28;123717;-70
2022/01/08 02:16:28;;;;;;;11.00;5.90;;;;;;;4.85;60.60;100985.59;4944150;28;119766;-71
2022/01/08 02:18:55;;;;;;;14.90;6.75;;;;;;;4.84;60.77;100986.50;4944705;28;118296;-69
2022/01/08 02:21:23;;;;;;;13.20;5.93;;;;;;;4.84;60.84;100983.88;4945405;28;124185;-69
2022/01/08 02:23:50;;;;;;;11.98;6.07;;;;;;;4.84;60.90;100986.50;4946764;28;124719;-69
2022/01/08 02:26:17;;;;;;;13.88;6.13;;;;;;;4.83;60.63;100992.63;4949025;28;118967;-68
2022/01/08 02:28:44;;;;;;;13.55;5.95;;;;;;;4.83;60.67;100982.13;4931492;28;119635;-69
2022/01/08 02:31:22;;;;;;;12.30;5.82;;;;;;;4.82;60.55;100980.41;4947236;28;123045;-69
2022/01/08 02:33:50;;;;;;;12.20;6.28;;;;;;;4.81;60.46;100977.81;4948414;28;124455;-69
2022/01/08 02:36:17;;;;;;;11.15;5.72;;;;;;;4.80;60.78;100982.22;4948484;28;120471;-69
2022/01/08 02:38:44;;;;;;;11.27;6.18;;;;;;;4.78;60.73;100989.22;4949368;28;120473;-69
2022/01/08 02:41:12;;;;;;;16.42;5.78;;;;;;;4.75;60.54;100978.81;4948545;28;124306;-68
2022/01/08 02:43:44;;;;;;;13.25;6.20;;;;;;;4.74;60.65;100987.53;4947717;28;123772;-69
2022/01/08 02:46:12;;;;;;;12.55;5.95;;;;;;;4.72;60.54;100984.09;4946735;28;119244;-69
2022/01/08 02:48:39;;;;;;;13.30;6.22;;;;;;;4.71;60.59;100990.25;4948699;28;118949;-69
2022/01/08 02:51:07;;;;;;;12.93;6.45;;;;;;;4.69;60.64;100994.66;4946881;28;123396;-69
2022/01/08 02:53:34;;;;;;;13.60;6.82;;;;;;;4.68;60.70;100998.16;4931568;28;122108;-69
2022/01/08 02:56:01;;;;;;;13.75;7.05;;;;;;;4.66;60.63;100999.94;4947474;28;119251;-69
2022/01/08 02:58:28;;;;;;;15.80;7.45;;;;;;;4.66;60.62;101010.44;4931004;28;118336;-69
2022/01/08 03:00:57;;;;;;;12.88;7.28;;;;;;;4.65;60.79;101013.94;4945786;28;123934;-69
2022/01/08 03:03:25;;;;;;;15.18;7.45;;;;;;;4.64;60.74;101013.09;4950207;28;122950;-70
2022/01/08 03:05:52;;;;;;;12.55;7.20;;;;;;;4.65;60.82;101003.47;4928284;28;120085;-70
2022/01/08 03:08:20;;;;;;;14.27;7.57;;;;;;;4.66;60.95;101010.44;4948497;28;119251;-71
2022/01/08 03:10:53;;;;;;;18.88;7.95;;;;;;;4.66;60.87;101010.44;4946675;28;124408;-71
2022/01/08 03:13:20;;;;;;;16.40;7.93;;;;;;;4.66;60.83;101010.44;4932157;28;123765;-70
2022/01/08 03:15:47;;;;;;;16.33;8.07;;;;;;;4.67;60.93;101018.28;4947736;28;119533;-70
2022/01/08 03:18:16;;;;;;;16.00;8.02;;;;;;;4.67;61.09;101012.16;4947474;28;117551;-71
2022/01/08 03:20:53;;;;;;;17.67;8.30;;;;;;;4.68;60.95;101009.50;4948042;28;124031;-71
2022/01/08 03:23:20;;;;;;;14.70;7.90;;;;;;;4.69;60.92;101005.16;4947862;28;124010;-71
2022/01/08 03:25:48;;;;;;;18.55;8.65;;;;;;;4.70;61.06;101013.88;4946159;28;119524;-71
2022/01/08 03:28:15;;;;;;;17.52;8.80;;;;;;;4.71;61.17;101011.25;4947011;28;118579;-71
2022/01/08 03:30:42;;;;;;;17.60;8.98;;;;;;;4.72;60.78;101014.72;4947617;28;123836;-71
2022/01/08 03:33:09;;;;;;;21.15;8.52;;;;;;;4.72;61.15;101014.72;4948260;28;125003;-70
2022/01/08 03:35:36;;;;;;;18.08;8.80;;;;;;;4.71;61.09;101013.88;4941043;28;117975;-71
2022/01/08 03:38:03;;;;;;;20.10;9.23;;;;;;;4.71;60.91;101008.63;4948457;28;118824;-70
2022/01/08 03:40:30;;;;;;;18.40;9.23;;;;;;;4.72;60.89;101015.56;4947637;28;123585;-71
2022/01/08 03:42:57;;;;;;;15.65;8.20;;;;;;;4.70;61.05;101017.38;4946661;28;123307;-71
2022/01/08 03:45:25;;;;;;;18.15;8.48;;;;;;;4.72;60.90;101023.44;4947923;28;119181;-70
2022/01/08 03:48:05;;;;;;;18.02;8.60;;;;;;;4.72;61.08;101015.56;4947993;28;118773;-71
2022/01/08 03:50:33;;;;;;;16.63;8.40;;;;;;;4.72;61.16;101026.06;4929453;28;122958;-70
2022/01/08 03:53:00;;;;;;;16.95;8.88;;;;;;;4.73;61.00;101027.81;4913670;28;122846;-71
2022/01/08 03:55:27;;;;;;;18.67;9.25;;;;;;;4.72;60.91;101028.69;4929923;28;117946;-71
2022/01/08 03:57:55;;;;;;;18.77;9.25;;;;;;;4.72;60.91;101028.69;4948806;28;120895;-70
2022/01/08 04:00:22;;;;;;;18.15;9.02;;;;;;;4.72;60.84;101026.06;4947312;28;124127;-70
2022/01/08 04:02:50;;;;;;;18.25;8.88;;;;;;;4.72;61.05;101031.31;4929336;28;123522;-70
2022/01/08 04:05:17;;;;;;;20.13;8.75;;;;;;;4.72;61.03;101026.06;4913720;28;118282;-69
2022/01/08 04:07:44;;;;;;;15.60;8.15;;;;;;;4.71;61.04;101024.34;4946599;28;119254;-70
2022/01/08 04:10:12;;;;;;;16.92;8.35;;;;;;;4.70;60.80;101033.09;4945341;28;123838;-70
2022/01/08 04:12:54;;;;;;;15.13;7.97;;;;;;;4.70;60.82;101032.25;4945577;28;122919;-70
2022/01/08 04:17:54;;;;;;;15.55;7.80;;;;;;;4.67;61.04;101027.91;4945377;28;119947;-71
2022/01/08 04:20:22;;;;;;;18.20;7.90;;;;;;;4.67;60.93;101033.16;4947386;28;123999;-71
2022/01/08 04:22:51;;;;;;;16.20;7.88;;;;;;;4.66;60.96;101031.44;4929352;28;123797;-70
2022/01/08 04:25:21;;;;;;;14.02;7.88;;;;;;;4.65;60.99;101030.56;4945604;28;119841;-70
2022/01/08 04:27:49;;;;;;;19.60;8.50;;;;;;;4.65;61.04;101032.31;4929549;28;118009;-71
2022/01/08 04:30:16;;;;;;;14.68;7.65;;;;;;;4.66;60.77;101031.44;4936917;28;123083;-70
2022/01/08 04:32:44;;;;;;;16.40;7.57;;;;;;;4.65;61.20;101040.19;4947252;28;124130;-71
2022/01/08 04:35:11;;;;;;;14.75;7.63;;;;;;;4.65;60.90;101042.81;4947093;28;118795;-70
2022/01/08 04:37:38;;;;;;;13.13;7.47;;;;;;;4.65;61.06;101050.69;4930044;28;119022;-67
2022/01/08 04:40:05;;;;;;;15.25;7.20;;;;;;;4.63;60.82;101052.47;4944867;28;124693;-68
2022/01/08 04:42:33;;;;;;;13.77;7.43;;;;;;;4.62;60.84;101050.75;4946892;28;125202;-68
2022/01/08 04:45:00;;;;;;;15.02;6.90;;;;;;;4.61;60.94;101049.00;4946398;28;119085;-68
2022/01/08 04:47:27;;;;;;;15.63;7.50;;;;;;;4.60;60.80;101045.53;4944757;28;119137;-69
2022/01/08 04:49:55;;;;;;;18.40;8.00;;;;;;;4.58;60.77;101049.06;4946579;28;123902;-69
2022/01/08 04:52:22;;;;;;;14.02;7.25;;;;;;;4.56;60.83;101048.22;4947048;28;124729;-69
2022/01/08 04:54:49;;;;;;;14.82;7.75;;;;;;;4.55;60.81;101054.34;4945574;28;119481;-69
2022/01/08 04:57:16;;;;;;;17.27;8.05;;;;;;;4.53;61.02;101056.16;4947457;28;118620;-69
2022/01/08 04:59:43;;;;;;;12.18;7.00;;;;;;;4.52;60.70;101059.66;4943251;28;125143;-69
2022/01/08 05:02:10;;;;;;;12.57;7.22;;;;;;;4.52;60.86;101059.66;4947383;28;123969;-69
2022/01/08 05:04:38;;;;;;;14.02;7.22;;;;;;;4.51;60.74;101068.41;4937465;28;119789;-69
2022/01/08 05:07:06;;;;;;;14.60;7.50;;;;;;;4.51;60.99;101068.41;4946688;28;120174;-69
2022/01/08 05:09:33;;;;;;;14.43;7.32;;;;;;;4.48;61.21;101062.34;4945421;28;123568;-70
2022/01/08 05:12:00;;;;;;;16.63;6.90;;;;;;;4.46;60.90;101061.50;4946026;28;123652;-69
2022/01/08 05:14:27;;;;;;;18.17;7.55;;;;;;;4.45;60.79;101065.00;4945196;28;119297;-71
2022/01/08 05:16:59;;;;;;;15.95;7.68;;;;;;;4.45;61.08;101069.38;4947054;28;119588;-69
2022/01/08 05:19:47;;;;;;;16.92;7.63;;;;;;;4.44;60.92;101058.00;4942957;28;124497;-69
2022/01/08 05:22:24;;;;;;;17.40;6.53;;;;;;;4.41;60.83;101063.31;4944807;28;124153;-68
2022/01/08 05:24:52;;;;;;;16.20;7.10;;;;;;;4.40;60.89;101061.56;4937175;28;119121;-69
2022/01/08 05:27:19;;;;;;;15.63;6.97;;;;;;;4.40;60.79;101072.06;4934662;28;118687;-70
2022/01/08 05:29:49;;;;;;;16.95;7.03;;;;;;;4.36;60.90;101059.91;4945816;28;123653;-70
2022/01/08 05:32:19;;;;;;;14.00;7.53;;;;;;;4.36;60.88;101054.66;4946761;28;123816;-69
2022/01/08 05:34:48;;;;;;;16.40;7.25;;;;;;;4.36;60.99;101062.53;4943187;28;119380;-69
2022/01/08 05:37:18;;;;;;;13.00;6.97;;;;;;;4.34;61.03;101061.69;4945113;28;119092;-69
2022/01/08 05:39:46;;;;;;;13.93;6.82;;;;;;;4.35;60.84;101068.69;4945460;28;123954;-68
2022/01/08 05:42:13;;;;;;;11.85;6.55;;;;;;;4.34;61.03;101072.16;4947375;28;123963;-69
2022/01/08 05:44:41;;;;;;;13.93;6.60;;;;;;;4.35;60.88;101073.03;4929453;28;118378;-69
2022/01/08 05:47:09;;;;;;;14.68;6.60;;;;;;;4.35;61.12;101068.69;4914424;28;117168;-69
2022/01/08 05:49:37;;;;;;;13.23;6.70;;;;;;;4.36;61.09;101059.91;4946313;28;124197;-69
2022/01/08 05:52:04;;;;;;;13.07;6.28;;;;;;;4.37;61.08;101066.88;4944075;28;123798;-69
2022/01/08 05:54:31;;;;;;;13.13;6.35;;;;;;;4.37;61.19;101059.03;4920039;28;119675;-69
2022/01/08 05:56:59;;;;;;;14.68;6.90;;;;;;;4.38;61.13;101071.22;4946325;28;120281;-69
2022/01/08 05:59:27;;;;;;;12.30;6.68;;;;;;;4.38;61.19;101079.09;4948421;28;123721;-69
2022/01/08 06:01:55;;;;;;;13.73;6.80;;;;;;;4.38;61.16;101084.34;4948914;28;123543;-68
2022/01/08 06:04:22;;;;;;;13.98;6.53;;;;;;;4.38;60.96;101084.34;4949085;28;119887;-69
2022/01/08 06:06:49;;;;;;;13.00;6.68;;;;;;;4.37;61.01;101081.72;4949387;28;119040;-69
2022/01/08 06:09:16;;;;;;;10.90;6.45;;;;;;;4.37;61.11;101086.97;4949533;28;125220;-70
2022/01/08 06:11:44;;;;;;;14.02;6.82;;;;;;;4.38;61.02;101099.22;4947076;28;123914;-70
2022/01/08 06:14:11;;;;;;;14.77;6.63;;;;;;;4.37;61.29;101098.34;4947791;28;119398;-69
2022/01/08 06:16:38;;;;;;;12.50;6.82;;;;;;;4.38;61.18;101100.06;4912706;28;117936;-69
2022/01/08 06:19:09;;;;;;;19.30;7.18;;;;;;;4.38;61.09;101105.31;4947534;28;124264;-69
2022/01/08 06:21:36;;;;;;;11.52;6.38;;;;;;;4.39;60.99;101104.44;4940290;28;123498;-69
2022/01/08 06:24:05;;;;;;;11.48;6.13;;;;;;;4.39;61.07;101107.06;4946425;28;117600;-69
2022/01/08 06:26:32;;;;;;;9.13;6.20;;;;;;;4.40;61.15;101106.16;4931398;28;117965;-69
2022/01/08 06:29:00;;;;;;;10.48;5.90;;;;;;;4.41;61.14;101110.53;4948769;28;123725;-70
2022/01/08 06:31:27;;;;;;;11.10;6.43;;;;;;;4.41;61.29;101110.53;4935825;28;122641;-69
2022/01/08 06:33:55;;;;;;;12.23;6.47;;;;;;;4.40;61.20;101108.78;4947497;28;118774;-68
2022/01/08 06:36:23;;;;;;;10.57;6.30;;;;;;;4.40;61.30;101108.78;4949332;28;118776;-69
2022/01/08 06:38:50;;;;;;;13.27;6.70;;;;;;;4.40;61.08;101108.78;4948762;28;124189;-69
2022/01/08 06:41:18;;;;;;;10.60;6.03;;;;;;;4.39;61.06;101104.44;4947208;28;123015;-69
2022/01/08 06:43:46;;;;;;;13.23;6.00;;;;;;;4.40;61.24;101103.53;4945431;28;119996;-70
2022/01/08 06:46:13;;;;;;;12.35;5.78;;;;;;;4.41;61.15;101110.53;4931419;28;120510;-68
2022/01/08 06:48:41;;;;;;;14.35;6.38;;;;;;;4.41;61.24;101110.53;4948601;28;124579;-69
2022/01/08 06:51:09;;;;;;;11.27;5.53;;;;;;;4.42;61.29;101112.25;4948433;28;124016;-70
2022/01/08 06:53:36;;;;;;;11.18;6.10;;;;;;;4.42;61.32;101104.38;4948594;28;119256;-70
2022/01/08 06:56:04;;;;;;;10.68;6.10;;;;;;;4.43;61.30;101102.63;4931277;28;118473;-70
2022/01/08 06:58:33;;;;;;;11.02;6.15;;;;;;;4.44;61.27;101105.22;4940786;28;124302;-70
2022/01/08 07:01:00;;;;;;;13.43;5.90;;;;;;;4.45;61.48;101101.72;4948480;28;123795;-70
2022/01/08 07:03:28;;;;;;;10.82;5.88;;;;;;;4.46;61.31;101098.22;4931024;28;118530;-70
2022/01/08 07:05:55;;;;;;;14.80;5.95;;;;;;;4.47;61.34;101097.31;4947582;28;118979;-70
2022/01/08 07:08:22;;;;;;;11.10;5.68;;;;;;;4.48;61.43;101101.69;4947186;28;123887;-70
2022/01/08 07:10:52;;;;;;;15.45;6.00;;;;;;;4.53;61.54;101092.88;4946253;28;123779;-69
2022/01/08 07:13:19;;;;;;;13.45;5.97;;;;;;;4.53;61.44;101090.25;4946948;28;118018;-69
2022/01/08 07:15:46;;;;;;;13.10;5.88;;;;;;;4.55;61.32;101101.56;4947970;28;119140;-69
2022/01/08 07:18:13;;;;;;;10.43;6.15;;;;;;;4.56;61.46;101092.78;4948323;28;124385;-68
2022/01/08 07:20:41;;;;;;;12.32;6.28;;;;;;;4.57;61.34;101099.78;4947990;28;124936;-69
2022/01/08 07:23:08;;;;;;;11.23;6.22;;;;;;;4.57;61.32;101099.78;4948285;28;119336;-69
2022/01/08 07:25:35;;;;;;;11.95;6.50;;;;;;;4.60;61.44;101111.09;4948712;28;119064;-69
2022/01/08 07:28:02;;;;;;;12.77;6.57;;;;;;;4.61;61.40;101109.34;4940928;28;123746;-69
2022/01/08 07:30:29;;;;;;;10.85;6.07;;;;;;;4.61;61.25;101106.72;4947254;28;123779;-69
2022/01/08 07:32:56;;;;;;;11.55;5.90;;;;;;;4.61;61.48;101101.47;4945538;28;120591;-69
2022/01/08 07:35:23;;;;;;;11.90;6.20;;;;;;;4.61;61.57;101109.34;4930738;28;119327;-69
2022/01/08 07:37:52;;;;;;;13.68;7.57;;;;;;;4.63;61.59;101110.16;4947339;28;122956;-69
2022/01/08 07:40:20;;;;;;;14.95;7.32;;;;;;;4.64;61.37;101101.44;4947175;28;124709;-69
2022/01/08 07:42:48;;;;;;;16.95;7.45;;;;;;;4.64;61.43;101098.81;4949096;28;119350;-69
2022/01/08 07:45:17;;;;;;;12.65;6.28;;;;;;;4.67;61.44;101098.72;4949668;28;118570;-68
2022/01/08 07:47:45;;;;;;;15.15;6.40;;;;;;;4.66;61.68;101104.88;4957377;28;121768;-69
2022/01/08 07:50:13;;;;;;;11.77;5.75;;;;;;;4.69;61.43;101107.47;4975186;28;123317;-69
2022/01/08 07:52:42;;;;;;;13.07;6.13;;;;;;;4.69;61.50;101104.84;4960617;28;120258;-69
2022/01/08 07:55:11;;;;;;;12.40;6.13;;;;;;;4.71;61.79;101097.81;4952666;28;119713;-69
2022/01/08 07:57:39;;;;;;;12.55;5.45;;;;;;;4.71;61.59;101097.81;4949361;28;122831;-69
2022/01/08 08:00:07;;;;;;;11.18;5.95;;;;;;;4.72;61.62;101099.53;4948152;28;123315;-68
2022/01/08 08:02:40;;;;;;;11.50;5.68;;;;;;;4.72;61.72;101094.28;4948039;28;119571;-69
2022/01/08 08:05:08;;;;;;;10.57;5.57;;;;;;;4.72;61.60;101099.53;4947656;28;117737;-69
2022/01/08 08:07:39;;;;;;;10.55;5.60;;;;;;;4.75;61.59;101098.63;4948625;28;123436;-69
2022/01/08 08:10:17;;;;;;;12.02;6.32;;;;;;;4.75;61.64;101099.50;4948909;28;123816;-69
2022/01/08 08:12:44;;;;;;;11.60;5.50;;;;;;;4.77;61.65;101091.59;4948413;28;119773;-69
2022/01/08 08:15:15;;;;;;;13.52;6.10;;;;;;;4.78;61.69;101086.31;4950538;28;119150;-69
2022/01/08 08:17:42;;;;;;;13.30;5.75;;;;;;;4.81;61.66;101086.25;4949713;28;123834;-69
2022/01/08 08:20:10;;;;;;;12.90;5.65;;;;;;;4.82;61.69;101080.13;4950614;28;123722;-69
2022/01/08 08:22:38;;;;;;;12.15;5.40;;;;;;;4.84;61.72;101078.34;4930545;28;119215;-69
2022/01/08 08:25:07;;;;;;;10.43;5.30;;;;;;;4.86;61.78;101076.56;4948461;28;119900;-69
2022/01/08 08:27:34;;;;;;;11.02;5.68;;;;;;;4.88;61.62;101074.75;4945622;28;124368;-70
2022/01/08 08:30:02;;;;;;;12.00;5.43;;;;;;;4.92;61.76;101080.81;4946735;28;124209;-69
2022/01/08 08:32:29;;;;;;;10.15;4.72;;;;;;;4.94;61.61;101089.53;4948210;28;120128;-69
2022/01/08 08:34:57;;;;;;;13.02;5.57;;;;;;;4.96;61.84;101081.66;4948450;28;119376;-70
2022/01/08 08:37:24;;;;;;;13.50;5.72;;;;;;;4.97;61.59;101067.59;4947955;28;123513;-69
2022/01/08 08:39:51;;;;;;;8.98;4.88;;;;;;;4.98;61.61;101069.34;4945789;28;122815;-70
2022/01/08 08:42:18;;;;;;;11.15;5.68;;;;;;;4.98;61.79;101069.34;4944394;28;119965;-69
2022/01/08 08:44:46;;;;;;;11.55;5.47;;;;;;;4.99;61.58;101060.56;4948304;28;119312;-69
2022/01/08 08:47:13;;;;;;;11.55;5.35;;;;;;;5.01;61.71;101050.91;4947810;28;125446;-69
2022/01/08 08:49:40;;;;;;;12.88;5.93;;;;;;;5.03;61.64;101049.16;4946861;28;124248;-69
2022/01/08 08:52:08;;;;;;;15.25;5.60;;;;;;;5.03;61.81;101052.63;4946848;28;120713;-70
2022/01/08 08:54:35;;;;;;;13.88;5.45;;;;;;;5.06;61.63;101046.44;4948263;28;119059;-69
2022/01/08 08:57:03;;;;;;;11.68;5.35;;;;;;;5.07;61.87;101053.44;4946155;28;122847;-69
2022/01/08 08:59:30;;;;;;;12.43;5.88;;;;;;;5.09;61.79;101056.91;4946496;28;121778;-69
2022/01/08 09:01:57;;;;;;;12.60;5.45;;;;;;;5.10;61.59;101053.34;4948044;28;119874;-70
2022/01/08 09:04:24;;;;;;;15.43;5.97;;;;;;;5.11;62.02;101055.09;4948371;28;118988;-69
2022/01/08 09:06:51;;;;;;;15.05;6.57;;;;;;;5.12;61.83;101048.94;4947851;28;124373;-70
2022/01/08 09:09:19;;;;;;;15.93;6.25;;;;;;;5.15;61.84;101051.53;4930111;28;122879;-69
2022/01/08 09:11:46;;;;;;;16.52;7.25;;;;;;;5.16;61.91;101047.13;4947324;28;120494;-70
2022/01/08 09:14:13;;;;;;;11.75;6.60;;;;;;;5.17;61.62;101048.88;4947641;28;120927;-69
2022/01/08 09:16:45;;;;;;;15.98;7.22;;;;;;;5.19;61.88;101053.19;4929708;28;122925;-69
2022/01/08 09:19:12;;;;;;;14.35;6.60;;;;;;;5.20;61.79;101044.44;4944787;28;123698;-69
2022/01/08 09:21:40;;;;;;;16.45;7.30;;;;;;;5.22;61.96;101037.38;4946506;28;118363;-69
2022/01/08 09:24:07;;;;;;;15.30;7.10;;;;;;;5.24;62.18;101040.00;4947151;28;118993;-69
2022/01/08 09:26:34;;;;;;;14.52;6.93;;;;;;;5.26;62.00;101041.69;4947117;28;123940;-70
2022/01/08 09:29:01;;;;;;;16.63;6.95;;;;;;;5.29;62.12;101043.34;4946094;28;121735;-69
2022/01/08 09:31:28;;;;;;;15.02;6.90;;;;;;;5.30;61.81;101034.59;4947470;28;118981;-69
2022/01/08 09:33:56;;;;;;;18.88;7.65;;;;;;;5.33;61.53;101044.16;4951286;28;119271;-70
2022/01/08 09:36:23;;;;;;;18.08;7.68;;;;;;;5.34;61.85;101035.41;4953779;28;123899;-69
2022/01/08 09:38:51;;;;;;;14.80;7.50;;;;;;;5.36;62.16;101031.00;4951840;28;123824;-69
2022/01/08 09:41:18;;;;;;;19.95;8.38;;;;;;;5.38;61.93;101032.66;4952653;28;119488;-70
2022/01/08 09:43:45;;;;;;;19.00;8.40;;;;;;;5.40;61.83;101030.03;4954390;28;118840;-70
2022/01/08 09:46:15;;;;;;;20.58;8.73;;;;;;;5.44;61.98;101036.94;4936230;28;124318;-70
2022/01/08 09:48:43;;;;;;;19.23;9.07;;;;;;;5.47;62.10;101018.50;4954006;28;123774;-70
2022/01/08 09:51:11;;;;;;;22.80;9.48;;;;;;;5.49;61.90;101014.06;4952125;28;118172;-69
2022/01/08 09:53:38;;;;;;;21.95;9.52;;;;;;;5.51;62.07;101007.03;4954553;28;120693;-70
2022/01/08 09:56:05;;;;;;;19.85;9.30;;;;;;;5.55;62.09;101007.81;4952567;28;123958;-69
2022/01/08 09:58:33;;;;;;;21.05;9.50;;;;;;;5.57;62.09;100999.00;4953889;28;122938;-70
2022/01/08 10:01:00;;;;;;;17.90;8.98;;;;;;;5.60;61.86;100995.47;4951179;28;119403;-70
2022/01/08 10:03:31;;;;;;;20.17;9.05;;;;;;;5.63;62.10;100991.00;4953948;28;120457;-70
2022/01/08 10:05:59;;;;;;;17.85;9.43;;;;;;;5.66;62.00;100990.91;4950925;28;124632;-70
2022/01/08 10:08:42;;;;;;;21.77;9.88;;;;;;;5.70;62.36;100980.34;4951183;28;124383;-72
2022/01/08 10:11:10;;;;;;;22.17;9.65;;;;;;;5.73;61.93;100972.41;4953675;28;120039;-71
2022/01/08 10:13:40;;;;;;;20.75;9.35;;;;;;;5.75;62.23;100962.72;4953184;28;119108;-69
2022/01/08 10:18:59;;;;;;;20.05;9.63;;;;;;;5.81;62.10;100944.16;4950663;28;124587;-69
2022/01/08 10:21:37;;;;;;;21.77;9.48;;;;;;;5.84;62.14;100946.75;4935478;28;117273;-70
2022/01/08 10:24:08;;;;;;;23.92;9.25;;;;;;;5.87;62.00;100925.63;4935625;28;118316;-70
2022/01/08 10:26:38;;;;;;;20.88;9.65;;;;;;;5.91;62.22;100914.13;4948369;28;124615;-71
2022/01/08 10:29:14;;;;;;;20.77;9.13;;;;;;;5.92;61.95;100907.97;4945157;28;124589;-70
2022/01/08 10:31:47;;;;;;;17.30;8.90;;;;;;;5.96;62.07;100904.41;4943752;28;118106;-70
2022/01/08 10:34:17;;;;;;;21.83;9.15;;;;;;;6.00;62.26;100900.78;4943834;28;118876;-70
2022/01/08 10:37:00;;;;;;;20.85;9.38;;;;;;;6.03;62.33;100905.97;4939817;28;124472;-70
2022/01/08 10:39:31;;;;;;;23.02;9.35;;;;;;;6.07;62.26;100895.41;4948575;28;124015;-69
2022/01/08 10:42:01;;;;;;;22.83;9.55;;;;;;;6.10;62.00;100890.03;4936225;28;119359;-70
2022/01/08 10:44:32;;;;;;;24.83;9.63;;;;;;;6.12;62.07;100873.34;4934921;28;117958;-70
2022/01/08 10:47:13;;;;;;;20.95;9.27;;;;;;;6.15;62.09;100873.25;4931439;28;123652;-69
2022/01/08 10:49:59;;;;;;;21.13;8.98;;;;;;;6.20;62.10;100865.25;4932243;28;123108;-70
2022/01/08 10:52:27;;;;;;;20.45;8.75;;;;;;;6.23;62.09;100854.63;4946385;28;120835;-70
2022/01/08 10:54:56;;;;;;;23.98;9.57;;;;;;;6.25;61.81;100847.56;4948691;28;120316;-70
2022/01/08 10:57:35;;;;;;;24.00;9.25;;;;;;;6.28;62.17;100847.47;4947695;28;124532;-69
2022/01/08 11:00:12;;;;;;;20.50;9.10;;;;;;;6.32;62.05;100835.97;4948105;28;124103;-70
2022/01/08 11:02:41;;;;;;;20.45;8.98;;;;;;;6.35;62.18;100830.63;4937105;28;119131;-69
2022/01/08 11:05:10;;;;;;;20.40;8.80;;;;;;;6.40;62.13;100823.47;4948554;28;119079;-70
2022/01/08 11:07:41;;;;;;;23.08;8.65;;;;;;;6.43;62.35;100815.50;4949236;28;123551;-69
2022/01/08 11:10:16;;;;;;;15.43;8.05;;;;;;;6.48;62.37;100806.59;4945625;28;124088;-70
2022/01/08 11:12:45;;;;;;;19.70;8.68;;;;;;;6.52;62.46;100797.72;4937760;28;119577;-73
2022/01/08 11:15:46;;;;;;;24.45;8.57;;;;;;;6.58;62.36;100802.81;4937725;28;119285;-70
2022/01/08 11:18:16;;;;;;;18.05;7.45;;;;;;;6.63;62.27;100800.91;4945958;28;123899;-72
2022/01/08 11:20:55;;;;;;;18.98;7.53;;;;;;;6.67;62.21;100794.66;4933387;28;124023;-73
2022/01/08 11:23:25;;;;;;;17.80;8.00;;;;;;;6.72;62.14;100795.34;4945050;28;119484;-72
2022/01/08 11:25:55;;;;;;;14.60;7.38;;;;;;;6.80;62.11;100788.09;4929141;28;117661;-71
2022/01/08 11:28:34;;;;;;;14.45;6.75;;;;;;;6.87;62.31;100787.91;4947242;28;124168;-71
2022/01/08 11:31:02;;;;;;;20.60;7.50;;;;;;;6.93;62.13;100778.06;4941532;28;123717;-71
2022/01/08 11:33:34;;;;;;;18.77;7.55;;;;;;;6.98;61.99;100781.41;4912910;28;117263;-73
2022/01/08 11:36:02;;;;;;;12.88;6.47;;;;;;;7.03;62.02;100773.38;4940602;28;119765;-73
2022/01/08 11:38:29;;;;;;;15.32;6.93;;;;;;;7.09;62.06;100764.41;4949276;28;124167;-73
2022/01/08 11:40:58;;;;;;;14.27;6.80;;;;;;;7.13;61.90;100766.88;4947971;28;123854;-73
2022/01/08 11:43:28;;;;;;;15.82;6.50;;;;;;;7.18;62.24;100762.34;4947916;28;120091;-72
2022/01/08 11:45:59;;;;;;;13.50;6.55;;;;;;;7.25;62.21;100756.88;4931239;28;119206;-73
2022/01/08 11:48:34;;;;;;;15.60;6.47;;;;;;;7.28;62.15;100740.97;4947172;28;124467;-73